Time;durP1;ratioP1;P1;durP2;ratioP2;P2;SDS_P1;SDS_P2;PMS_P1;PMS_P2;Temp;Humidity;BMP_temperature;BMP_pressure;BME280_temperature;BME280_humidity;BME280_pressure;Samples;Min_cycle;Max_cycle;Signal;HPM_P1;HPM_P2
2021/06/15 00:00:36;;;;;;;60.20;31.17;;;;;;;18.53;76.26;92952.47;4943233;29;20489;-90
2021/06/15 00:03:44;;;;;;;64.78;33.75;;;;;;;18.26;76.30;92916.63;4932922;28;20043;-90
2021/06/15 00:06:20;;;;;;;59.92;31.67;;;;;;;18.21;76.38;92922.91;4933050;29;20066;-90
2021/06/15 00:09:00;;;;;;;67.20;33.10;;;;;;;18.14;76.41;92922.66;4918777;29;20520;-90
2021/06/15 00:12:13;;;;;;;;;;;;;;;;;;;;;
2021/06/15 00:15:11;;;;;;;;;;;;;;;;;;;;;
2021/06/15 00:18:07;;;;;;;50.83;26.55;;;;;;;17.96;76.30;92929.94;4934289;29;20109;-90
2021/06/15 00:20:44;;;;;;;47.78;25.05;;;;;;;18.28;75.15;92959.50;4920190;28;20113;-90
2021/06/15 00:23:33;;;;;;;;;;;;;;;;;;;;;
2021/06/15 00:26:14;;;;;;;42.42;22.58;;;;;;;17.79;75.80;92935.31;4926648;28;20051;-91
2021/06/15 00:29:03;;;;;;;46.28;21.73;;;;;;;17.73;75.04;92926.75;4915407;29;20044;-91
2021/06/15 00:31:35;;;;;;;45.88;21.08;;;;;;;17.67;74.91;92923.53;4917387;29;20902;-90
2021/06/15 00:34:39;;;;;;;;;;;;;;;;;;;;;
2021/06/15 00:37:37;;;;;;;39.58;20.88;;;;;;;17.73;75.11;92941.88;4941114;29;20046;-91
2021/06/15 00:40:15;;;;;;;48.15;23.00;;;;;;;17.69;75.56;92937.19;4954505;28;20059;-91
2021/06/15 00:42:58;;;;;;;46.05;20.67;;;;;;;17.96;74.90;92969.66;4963954;28;20492;-91
2021/06/15 00:46:11;;;;;;;;;;;;;;;;;;;;;
2021/06/15 00:49:30;;;;;;;43.20;20.42;;;;;;;18.10;74.72;92980.00;4947670;29;20059;-91
2021/06/15 00:52:14;;;;;;;32.75;17.75;;;;;;;18.19;74.26;92998.50;4936013;29;20040;-91
2021/06/15 00:55:00;;;;;;;;;;;;;;;;;;;;;
2021/06/15 00:58:20;;;;;;;30.40;15.43;;;;;;;17.85;71.89;92952.56;4933749;28;20096;-90
2021/06/15 01:01:06;;;;;;;;;;;;;;;;;;;;;
2021/06/15 01:07:11;;;;;;;28.95;14.10;;;;;;;17.97;70.53;92984.47;4933955;28;20058;-90
2021/06/15 01:10:15;;;;;;;25.42;13.30;;;;;;;18.13;69.29;93005.88;4943306;29;20043;-91
2021/06/15 01:13:16;;;;;;;;;;;;;;;;;;;;;
2021/06/15 01:16:06;;;;;;;23.92;12.48;;;;;;;17.78;67.56;92955.69;4935015;29;20050;-90
2021/06/15 01:19:00;;;;;;;;;;;;;;;;;;;;;
2021/06/15 01:25:46;;;;;;;22.95;12.35;;;;;;;17.97;66.09;93000.34;4943375;28;20048;-91
2021/06/15 01:28:49;;;;;;;;;;;;;;;;;;;;;
2021/06/15 01:31:32;;;;;;;26.63;11.65;;;;;;;17.63;66.69;92937.69;4931228;28;20043;-90
2021/06/15 01:34:27;;;;;;;20.10;10.70;;;;;;;18.01;67.61;92995.19;4913066;28;20139;-91
2021/06/15 01:37:37;;;;;;;18.35;11.43;;;;;;;18.07;67.32;92993.91;4920960;29;20048;-90
2021/06/15 01:40:13;;;;;;;18.70;11.50;;;;;;;17.98;67.26;92975.41;4977182;28;20043;-90
2021/06/15 01:43:20;;;;;;;21.58;11.75;;;;;;;17.79;67.04;92945.91;4913816;28;20438;-90
2021/06/15 01:46:40;;;;;;;28.42;11.85;;;;;;;17.86;66.89;92957.56;4943245;28;20516;-91
2021/06/15 01:49:49;;;;;;;19.75;11.50;;;;;;;17.84;65.17;92951.03;4942872;29;20049;-91
2021/06/15 01:53:05;;;;;;;25.60;10.40;;;;;;;17.96;63.29;92939.75;4909367;28;20558;-89
2021/06/15 01:55:58;;;;;;;21.13;10.52;;;;;;;17.83;64.16;92946.81;4943172;28;20070;-90
2021/06/15 01:58:47;;;;;;;20.38;10.18;;;;;;;17.80;64.52;92956.16;4947401;28;20035;-90
2021/06/15 02:01:28;;;;;;;24.23;10.43;;;;;;;17.71;65.00;92941.41;4949306;28;20051;-91
2021/06/15 02:04:09;;;;;;;18.30;9.90;;;;;;;17.68;64.46;92945.47;4945427;29;20052;-90
2021/06/15 02:06:59;;;;;;;23.70;10.05;;;;;;;17.88;64.33;92976.56;4950237;28;20047;-90
2021/06/15 02:10:19;;;;;;;;;;;;;;;;;;;;;
2021/06/15 02:13:15;;;;;;;18.98;10.40;;;;;;;17.67;63.70;92955.28;4928541;28;20075;-90
2021/06/15 02:16:06;;;;;;;18.30;10.63;;;;;;;17.60;63.66;92944.41;4922480;29;20051;-90
2021/06/15 02:18:58;;;;;;;23.60;10.53;;;;;;;17.78;63.08;92987.47;4942115;29;20473;-90
2021/06/15 02:21:59;;;;;;;17.63;10.23;;;;;;;17.80;62.59;92995.09;4918473;28;20063;-90
2021/06/15 02:25:03;;;;;;;24.13;10.45;;;;;;;17.62;62.63;92973.97;4923969;28;20170;-90
2021/06/15 02:28:22;;;;;;;20.98;9.98;;;;;;;17.65;62.13;92968.06;4915698;28;20055;-91
2021/06/15 02:32:06;;;;;;;17.25;9.48;;;;;;;17.91;62.46;93017.50;4922627;28;20043;-91
2021/06/15 02:35:13;;;;;;;;;;;;;;;;;;;;;
2021/06/15 02:41:53;;;;;;;18.17;10.73;;;;;;;17.58;63.57;92967.75;4931008;28;20501;-90
2021/06/15 02:44:55;;;;;;;28.33;11.32;;;;;;;17.59;63.55;92964.03;4920725;28;20064;-90
2021/06/15 02:48:10;;;;;;;;;;;;;;;;;;;;;
2021/06/15 02:50:58;;;;;;;21.02;10.43;;;;;;;17.58;63.67;92977.59;4963400;28;20055;-90
2021/06/15 02:53:51;;;;;;;18.88;11.23;;;;;;;17.65;63.83;92994.53;4935312;29;20074;-90
2021/06/15 02:56:29;;;;;;;20.60;10.80;;;;;;;17.72;64.13;92998.56;4949002;29;20058;-90
2021/06/15 02:59:27;;;;;;;;;;;;;;;;;;;;;
2021/06/15 03:02:32;;;;;;;;;;;;;;;;;;;;;
2021/06/15 03:05:27;;;;;;;20.10;11.18;;;;;;;17.56;65.46;93001.75;4939445;28;20113;-91
2021/06/15 03:08:17;;;;;;;;;;;;;;;;;;;;;
2021/06/15 03:10:54;;;;;;;;;;;;;;;;;;;;;
2021/06/15 03:14:31;;;;;;;18.75;10.43;;;;;;;17.43;66.29;92998.19;4935200;29;20044;-91
2021/06/15 03:17:22;;;;;;;;;;;;;;;;;;;;;
2021/06/15 03:20:05;;;;;;;16.80;11.25;;;;;;;17.61;67.51;93035.97;4908628;28;20070;-91
2021/06/15 03:23:27;;;;;;;25.63;12.27;;;;;;;17.69;67.48;93052.91;4943906;29;20105;-91
2021/06/15 03:26:33;;;;;;;21.05;11.85;;;;;;;17.36;67.45;92997.09;4949834;28;20051;-90
2021/06/15 03:29:31;;;;;;;19.98;11.38;;;;;;;17.56;67.63;93040.66;4951916;28;20103;-92
2021/06/15 03:32:22;;;;;;;;;;;;;;;;;;;;;
2021/06/15 03:35:13;;;;;;;20.60;11.75;;;;;;;17.55;67.48;93045.16;4963828;28;20042;-92
2021/06/15 03:38:07;;;;;;;22.98;11.30;;;;;;;17.54;67.25;93048.91;4940378;28;20059;-91
2021/06/15 03:40:50;;;;;;;19.92;10.85;;;;;;;17.32;67.07;93015.50;4937389;28;20048;-91
2021/06/15 03:43:18;;;;;;;20.85;11.88;;;;;;;17.25;66.81;93012.56;4933278;28;20044;-92
2021/06/15 03:46:18;;;;;;;22.08;11.57;;;;;;;17.24;67.10;93024.22;4918596;29;20062;-90
2021/06/15 03:48:57;;;;;;;29.05;11.75;;;;;;;17.19;67.07;93017.22;4933180;29;20071;-91
2021/06/15 03:51:35;;;;;;;24.13;11.50;;;;;;;17.15;67.58;93021.56;4938074;28;20054;-92
2021/06/15 03:54:57;;;;;;;25.40;12.40;;;;;;;17.24;67.33;93032.91;4988802;28;20044;-91
2021/06/15 03:57:25;;;;;;;;;;;;;;;;;;;;;
2021/06/15 04:00:06;;;;;;;22.58;11.90;;;;;;;17.13;67.55;93026.41;4948733;28;20097;-92
2021/06/15 04:02:57;;;;;;;17.73;11.18;;;;;;;17.09;67.51;93027.34;4953048;28;20458;-91
2021/06/15 04:05:54;;;;;;;20.38;10.90;;;;;;;17.08;67.76;93039.78;4943542;28;20080;-92
2021/06/15 04:09:02;;;;;;;26.77;12.48;;;;;;;17.13;67.29;93047.56;4924296;29;20055;-92
2021/06/15 04:11:54;;;;;;;21.83;11.50;;;;;;;17.38;67.30;93095.47;4933386;28;20078;-92
2021/06/15 04:14:47;;;;;;;17.40;11.18;;;;;;;16.98;67.35;93032.97;4900278;29;20581;-91
2021/06/15 04:17:36;;;;;;;21.45;12.13;;;;;;;17.08;67.01;93047.72;4951108;28;20110;-91
2021/06/15 04:20:49;;;;;;;;;;;;;;;;;;;;;
2021/06/15 04:24:11;;;;;;;16.33;11.30;;;;;;;17.01;67.25;93039.50;4934567;28;20409;-91
2021/06/15 04:26:58;;;;;;;23.13;11.57;;;;;;;17.26;67.40;93081.00;4917864;28;20045;-92
2021/06/15 04:33:01;;;;;;;18.58;11.10;;;;;;;17.10;67.50;93061.44;4931339;29;20046;-91
2021/06/15 04:36:12;;;;;;;18.38;10.65;;;;;;;17.16;67.51;93062.06;4928088;29;20401;-92
2021/06/15 04:39:08;;;;;;;;;;;;;;;;;;;;;
2021/06/15 04:42:25;;;;;;;23.98;11.35;;;;;;;17.45;67.20;93107.16;4940213;28;20039;-92
2021/06/15 04:46:12;;;;;;;26.33;12.05;;;;;;;17.14;67.08;93051.78;4974368;28;20133;-91
2021/06/15 04:49:44;;;;;;;;;;;;;;;;;;;;;
2021/06/15 04:56:25;;;;;;;29.98;11.18;;;;;;;17.14;67.57;93059.72;4932210;28;20070;-91
2021/06/15 04:59:44;;;;;;;28.50;10.85;;;;;;;17.21;67.45;93077.75;4948176;28;20047;-93
2021/06/15 05:02:49;;;;;;;18.95;11.40;;;;;;;17.01;67.27;93055.38;4937066;28;20074;-93
2021/06/15 05:05:47;;;;;;;18.48;11.40;;;;;;;17.07;67.61;93048.84;4925676;28;20059;-92
2021/06/15 05:08:30;;;;;;;20.73;10.82;;;;;;;17.15;67.08;93063.91;4945693;28;20056;-93
2021/06/15 05:14:46;;;;;;;;;;;;;;;;;;;;;
2021/06/15 05:25:27;;;;;;;;;;;;;;;;;;;;;
2021/06/15 05:32:06;;;;;;;19.85;10.88;;;;;;;17.48;65.76;93081.94;4940306;28;20473;-94
2021/06/15 05:42:23;;;;;;;;;;;;;;;;;;;;;
2021/06/15 05:45:15;;;;;;;19.42;11.35;;;;;;;17.82;63.18;93082.97;4915951;29;20058;-93
2021/06/15 05:48:01;;;;;;;19.95;9.75;;;;;;;18.16;63.62;93115.75;4914604;28;20056;-93
2021/06/15 05:50:53;;;;;;;;;;;;;;;18.16;63.20;93132.41;4935437;28;20413;-92
2021/06/15 05:53:48;;;;;;;21.20;10.25;;;;;;;17.91;62.92;93089.03;4932409;29;19930;-92
2021/06/15 05:56:47;;;;;;;;;;;;;;;;;;;;;
2021/06/15 05:59:48;;;;;;;22.13;10.57;;;;;;;18.08;62.90;93106.72;4933199;28;20134;-92
2021/06/15 06:02:26;;;;;;;21.63;11.10;;;;;;;17.96;62.61;93090.72;4903800;28;20063;-94
2021/06/15 06:09:15;;;;;;;17.30;9.82;;;;;;;18.10;61.68;93088.63;5008153;28;20188;-93
2021/06/15 06:18:46;;;;;;;22.45;9.60;;;;;;;18.22;62.38;93101.22;5015258;28;20053;-93
2021/06/15 06:21:45;;;;;;;18.45;9.52;;;;;;;18.28;61.91;93105.22;4993708;28;20038;-94
2021/06/15 06:24:56;;;;;;;14.55;9.30;;;;;;;18.25;62.53;93103.22;5015123;28;20053;-94
2021/06/15 06:28:03;;;;;;;16.15;9.48;;;;;;;18.41;61.73;93136.03;5002346;28;20095;-93
2021/06/15 06:31:46;;;;;;;;;;;;;;;;;;;;;
2021/06/15 06:37:36;;;;;;;19.80;10.15;;;;;;;18.16;61.93;93115.75;5014911;28;20076;-93
2021/06/15 06:41:03;;;;;;;22.40;11.02;;;;;;;18.51;61.98;93151.59;5012051;28;20058;-95
2021/06/15 06:43:55;;;;;;;17.35;9.57;;;;;;;18.25;63.08;93113.84;4930255;29;20055;-94
2021/06/15 06:46:58;;;;;;;19.60;9.75;;;;;;;18.43;62.58;93106.59;4933700;28;20150;-93
2021/06/15 06:50:10;;;;;;;21.83;9.70;;;;;;;18.39;61.54;93090.53;4890470;29;20074;-94
2021/06/15 06:53:57;;;;;;;18.02;10.10;;;;;;;18.66;60.57;93099.13;4929694;28;20521;-94
2021/06/15 07:00:20;;;;;;;20.42;9.63;;;;;;;19.22;60.57;93104.22;4907832;28;20119;-94
2021/06/15 07:06:51;;;;;;;20.17;10.13;;;;;;;19.07;60.24;93098.44;4910802;29;20540;-94
2021/06/15 07:10:24;;;;;;;22.58;9.50;;;;;;;18.91;61.24;93123.94;4902572;28;20075;-94
2021/06/15 07:13:34;;;;;;;16.75;10.00;;;;;;;18.84;60.43;93105.91;4895192;28;20085;-94
2021/06/15 07:16:23;;;;;;;;;;;;;;;;;;;;;
2021/06/15 07:26:39;;;;;;;19.58;9.65;;;;;;;18.66;61.19;93107.06;4892403;28;20486;-94
2021/06/15 07:32:46;;;;;;;19.60;10.15;;;;;;;18.56;61.16;93104.81;4888006;28;20131;-94
2021/06/15 07:49:34;;;;;;;;;;;;;;;;;;;;;
2021/06/15 07:56:17;;;;;;;;;;;;;;;;;;;;;
2021/06/15 07:59:22;;;;;;;21.67;10.40;;;;;;;19.76;58.52;93155.47;4920310;28;20545;-94
2021/06/15 08:02:28;;;;;;;;;;;;;;;;;;;;;
2021/06/15 08:09:04;;;;;;;;;;;;;;;;;;;;;
2021/06/15 08:11:59;;;;;;;16.10;9.30;;;;;;;20.69;55.29;93095.81;4934957;29;20052;-95
2021/06/15 08:18:29;;;;;;;15.77;8.18;;;;;;;20.42;55.62;93108.66;4937759;28;20111;-95
2021/06/15 08:22:17;;;;;;;;;;;;;;;;;;;;;
2021/06/15 08:28:55;;;;;;;;;;;;;;;;;;;;;
2021/06/15 08:32:29;;;;;;;;;;;;;;;;;;;;;
2021/06/15 08:39:04;;;;;;;;;;;;;;;;;;;;;
2021/06/15 08:42:41;;;;;;;;;;;;;;;;;;;;;
2021/06/15 08:46:12;;;;;;;14.95;9.95;;;;;;;21.02;52.37;93084.25;4939882;29;20686;-94
2021/06/15 08:53:25;;;;;;;14.70;9.13;;;;;;;21.74;52.52;93121.66;4877963;29;20103;-95
2021/06/15 08:57:32;;;;;;;;;;;;;;;;;;;;;
2021/06/15 09:01:01;;;;;;;19.67;9.50;;;;;;;20.99;51.56;93080.38;4930006;29;20039;-95
2021/06/15 09:14:11;;;;;;;22.77;10.05;;;;;;;21.19;50.79;93074.13;4972580;28;20128;-94
2021/06/15 09:17:07;;;;;;;20.52;9.38;;;;;;;21.58;50.44;93084.31;4959638;28;20070;-94
2021/06/15 09:20:12;;;;;;;21.90;8.90;;;;;;;21.55;53.71;93108.97;4962312;28;20106;-94
2021/06/15 09:23:32;;;;;;;23.00;9.20;;;;;;;21.53;49.79;93077.34;4959393;28;20055;-95
2021/06/15 09:26:54;;;;;;;;;;;;;;;;;;;;;
2021/06/15 09:30:21;;;;;;;18.90;9.48;;;;;;;23.31;49.04;93129.22;4972427;28;20046;-94
2021/06/15 09:41:18;;;;;;;24.48;9.80;;;;;;;22.29;49.58;93089.91;5004567;28;20086;-95
2021/06/15 09:45:22;;;;;;;;;;;;;;;;;;;;;
2021/06/15 09:48:36;;;;;;;;;;;;;;;;;;;;;
2021/06/15 09:55:09;;;;;;;18.17;10.20;;;;;;;23.09;47.18;93079.94;4924177;28;20058;-95
2021/06/15 09:58:20;;;;;;;;;;;;;;;;;;;;;
2021/06/15 10:04:58;;;;;;;21.48;9.90;;;;;;;23.44;46.66;93119.94;4953349;29;20047;-94
2021/06/15 10:08:31;;;;;;;;;;;;;;;;;;;;;
2021/06/15 10:15:42;;;;;;;;;;;;;;;;;;;;;
2021/06/15 10:19:14;;;;;;;24.42;11.30;;;;;;;22.68;49.26;93063.41;5007941;28;20054;-94
2021/06/15 10:22:29;;;;;;;32.20;13.80;;;;;;;23.01;47.95;93108.34;4939240;28;20118;-94
2021/06/15 10:29:31;;;;;;;23.52;12.18;;;;;;;22.41;49.32;93071.19;5041648;28;20527;-94
2021/06/15 10:33:28;;;;;;;;;;;;;;;;;;;;;
2021/06/15 10:37:08;;;;;;;27.08;14.27;;;;;;;22.64;48.86;93053.41;4954234;28;20054;-94
2021/06/15 10:41:07;;;;;;;;;;;;;;;;;;;;;
2021/06/15 10:44:52;;;;;;;;;;;;;;;;;;;;;
2021/06/15 10:48:36;;;;;;;;;;;;;;;;;;;;;
2021/06/15 11:21:48;;;;;;;;;;;;;;;;;;;;;
2021/06/15 11:25:26;;;;;;;31.80;12.80;;;;;;;24.80;47.38;93057.34;4877658;29;20078;-94
2021/06/15 11:36:49;;;;;;;;;;;;;;;;;;;;;
2021/06/15 11:40:20;;;;;;;;;;;;;;;;;;;;;
2021/06/15 11:43:33;;;;;;;23.88;12.35;;;;;;;23.51;49.60;93013.22;4979318;28;20389;-95
2021/06/15 11:46:59;;;;;;;;;;;;;;;;;;;;;
2021/06/15 11:50:22;;;;;;;25.88;10.90;;;;;;;23.93;49.60;93044.50;4941167;28;20059;-94
2021/06/15 11:54:23;;;;;;;;;;;;;;;;;;;;;
2021/06/15 11:57:29;;;;;;;19.27;11.82;;;;;;;24.10;48.82;93043.28;5016268;28;20046;-94
2021/06/15 12:04:46;;;;;;;;;;;;;;;;;;;;;
2021/06/15 12:12:19;;;;;;;;;;;;;;;;;;;;;
2021/06/15 12:20:03;;;;;;;;;;;;;;;;;;;;;
2021/06/15 12:38:40;;;;;;;;;;;;;;;;;;;;;
2021/06/15 12:57:23;;;;;;;18.95;11.18;;;;;;;26.01;47.32;92993.69;4964083;28;20050;-95
2021/06/15 13:14:34;;;;;;;;;;;;;;;;;;;;;
2021/06/15 13:18:11;;;;;;;;;;;;;;;;;;;;;
2021/06/15 13:21:58;;;;;;;;;;;;;;;;;;;;;
2021/06/15 13:25:18;;;;;;;19.48;11.20;;;;;;;24.35;47.21;92955.41;4942360;28;20070;-94
2021/06/15 13:32:55;;;;;;;17.25;10.45;;;;;;;24.57;47.21;92959.16;4908154;29;20131;-94
2021/06/15 13:43:36;;;;;;;;;;;;;;;;;;;;;
2021/06/15 13:53:44;;;;;;;20.67;11.00;;;;;;;25.26;45.87;92960.75;4950380;28;20050;-95
2021/06/15 13:57:27;;;;;;;;;;;;;;;;;;;;;
2021/06/15 14:01:15;;;;;;;27.83;11.00;;;;;;;24.31;46.83;92920.56;4898200;28;20126;-94
2021/06/15 14:04:55;;;;;;;21.88;12.25;;;;;;;24.77;45.97;92925.00;4906286;28;20143;-95
2021/06/15 14:12:03;;;;;;;;;;;;;;;;;;;;;
2021/06/15 14:15:58;;;;;;;;;;;;;;;;;;;;;
2021/06/15 14:20:06;;;;;;;23.65;12.05;;;;;;;24.42;47.97;92909.25;4955267;28;20122;-95
2021/06/15 14:26:48;;;;;;;21.77;11.38;;;;;;;24.29;47.19;92906.78;4984546;28;20046;-94
2021/06/15 14:34:26;;;;;;;26.02;12.85;;;;;;;24.59;47.58;92886.53;4940712;28;20178;-94
2021/06/15 14:37:52;;;;;;;23.73;11.57;;;;;;;24.57;47.29;92878.88;4981795;28;20034;-94
2021/06/15 14:52:32;;;;;;;22.92;12.25;;;;;;;24.67;48.57;92921.06;4952240;29;20054;-95
2021/06/15 14:56:21;;;;;;;;;;;;;;;;;;;;;
2021/06/15 14:59:36;;;;;;;22.77;12.50;;;;;;;24.78;48.32;92923.09;4976051;28;20046;-94
2021/06/15 15:17:45;;;;;;;21.40;12.63;;;;;;;24.39;48.36;92865.25;5047578;28;20143;-96
2021/06/15 15:21:08;;;;;;;23.88;12.48;;;;;;;24.98;47.73;92913.00;5027289;28;20124;-94
2021/06/15 15:24:22;;;;;;;;;;;;;;;;;;;;;
2021/06/15 15:27:46;;;;;;;;;;;;;;;;;;;;;
2021/06/15 15:31:24;;;;;;;23.33;12.98;;;;;;;24.53;48.48;92899.47;5045570;28;20127;-94
2021/06/15 15:34:56;;;;;;;;;;;;;;;;;;;;;
2021/06/15 15:41:49;;;;;;;20.70;13.93;;;;;;;24.58;47.51;92882.31;5072934;28;20040;-93
2021/06/15 15:45:11;;;;;;;25.98;13.88;;;;;;;24.40;47.37;92847.28;5041652;28;20051;-94
2021/06/15 15:56:10;;;;;;;;;;;;;;;;;;;;;
2021/06/15 16:07:00;;;;;;;21.05;12.68;;;;;;;24.48;49.11;92859.66;4881636;29;20055;-95
2021/06/15 16:18:20;;;;;;;;;;;;;;;;;;;;;
2021/06/15 16:25:59;;;;;;;;;;;;;;;;;;;;;
2021/06/15 16:29:52;;;;;;;22.15;12.60;;;;;;;23.61;50.47;92819.47;4938362;28;20054;-95
2021/06/15 16:41:29;;;;;;;21.00;13.20;;;;;;;23.78;50.65;92866.34;4997611;28;20068;-95
2021/06/15 16:44:30;;;;;;;23.33;13.57;;;;;;;23.56;50.04;92812.53;5001219;28;20101;-94
2021/06/15 16:51:04;;;;;;;21.05;13.60;;;;;;;23.63;50.40;92841.25;5045738;28;20051;-94
2021/06/15 16:58:01;;;;;;;22.80;13.55;;;;;;;23.44;51.37;92842.09;4919579;29;20056;-94
2021/06/15 17:05:22;;;;;;;;;;;;;;;;;;;;;
2021/06/15 17:09:10;;;;;;;22.70;13.55;;;;;;;23.16;51.42;92824.50;5067335;28;20052;-94
2021/06/15 17:12:20;;;;;;;23.98;13.80;;;;;;;23.42;52.89;92863.09;5006976;23;20081;-75
2021/06/15 17:14:52;;;;;;;26.35;13.85;;;;;;;23.37;53.44;92864.16;4918969;28;20106;-75
2021/06/15 17:17:19;;;;;;;20.58;12.40;;;;;;;23.53;53.45;92860.56;4930481;29;20060;-75
2021/06/15 17:19:45;;;;;;;25.20;13.52;;;;;;;23.71;53.04;92858.97;4931226;28;20453;-75
2021/06/15 17:22:10;;;;;;;27.42;13.98;;;;;;;23.83;52.20;92858.78;4943849;29;20051;-75
2021/06/15 17:24:36;;;;;;;21.33;13.07;;;;;;;23.93;52.70;92857.38;4930298;29;20051;-76
2021/06/15 17:27:03;;;;;;;20.63;13.00;;;;;;;24.03;52.94;92862.13;4928374;29;20079;-77
2021/06/15 17:29:29;;;;;;;21.02;12.73;;;;;;;23.97;52.42;92857.44;4929137;29;20150;-77
2021/06/15 17:31:55;;;;;;;25.55;13.23;;;;;;;23.99;52.53;92860.53;4911320;29;20533;-77
2021/06/15 17:34:20;;;;;;;23.73;14.18;;;;;;;23.73;53.14;92850.56;4927760;29;20043;-77
2021/06/15 17:36:46;;;;;;;28.00;13.35;;;;;;;23.75;52.99;92862.47;4936377;28;20044;-78
2021/06/15 17:39:12;;;;;;;23.13;13.60;;;;;;;23.76;52.98;92856.00;4934675;29;20555;-77
2021/06/15 17:41:37;;;;;;;24.33;12.75;;;;;;;23.74;54.04;92852.13;4915025;28;20044;-80
2021/06/15 17:44:03;;;;;;;24.30;13.80;;;;;;;23.68;53.28;92857.75;4938606;28;20032;-78
2021/06/15 17:46:29;;;;;;;29.10;13.32;;;;;;;23.70;53.32;92860.06;4930431;29;20051;-78
2021/06/15 17:48:55;;;;;;;27.00;14.35;;;;;;;23.62;53.90;92863.75;4930072;28;20082;-78
2021/06/15 17:51:21;;;;;;;23.23;12.55;;;;;;;23.64;54.27;92862.28;4931675;29;20043;-76
2021/06/15 17:53:47;;;;;;;22.50;13.23;;;;;;;23.57;54.38;92856.06;4936042;29;20051;-78
2021/06/15 17:56:14;;;;;;;26.95;13.30;;;;;;;23.43;54.58;92862.72;4931448;29;20134;-77
2021/06/15 17:58:45;;;;;;;21.83;14.43;;;;;;;23.41;54.73;92862.28;4929294;29;20047;-78
2021/06/15 18:01:11;;;;;;;23.93;13.83;;;;;;;23.34;54.72;92864.84;4930854;29;20051;-80
2021/06/15 18:03:37;;;;;;;35.35;14.60;;;;;;;23.28;54.65;92864.41;4931002;29;20052;-79
2021/06/15 18:06:13;;;;;;;26.55;14.30;;;;;;;23.19;54.99;92861.19;4944172;29;20047;-77
2021/06/15 18:08:46;;;;;;;22.52;13.60;;;;;;;23.17;55.20;92865.31;4950955;29;20406;-80
2021/06/15 18:11:12;;;;;;;33.65;14.05;;;;;;;23.10;55.55;92862.53;4943491;28;20040;-79
2021/06/15 18:13:38;;;;;;;23.02;13.15;;;;;;;22.99;56.01;92871.13;4956343;28;20062;-80
2021/06/15 18:16:04;;;;;;;23.52;13.70;;;;;;;22.90;56.47;92867.09;4947516;28;20066;-78
2021/06/15 18:18:30;;;;;;;23.45;13.00;;;;;;;22.83;56.82;92873.06;4972754;28;20082;-79
2021/06/15 18:20:56;;;;;;;23.33;13.75;;;;;;;22.74;57.34;92869.84;4969405;28;20070;-79
2021/06/15 18:23:22;;;;;;;24.75;12.73;;;;;;;22.67;57.75;92873.16;4965261;28;20051;-78
2021/06/15 18:25:48;;;;;;;26.15;13.90;;;;;;;22.57;57.91;92861.16;4953883;28;20051;-77
2021/06/15 18:28:15;;;;;;;27.85;14.52;;;;;;;22.52;57.87;92861.47;4964805;28;20476;-77
2021/06/15 18:30:42;;;;;;;25.48;14.07;;;;;;;22.48;57.51;92865.94;4970437;28;20247;-76
2021/06/15 18:33:07;;;;;;;23.75;14.77;;;;;;;22.40;57.98;92866.91;4949035;28;20054;-77
2021/06/15 18:35:33;;;;;;;24.92;14.73;;;;;;;22.32;57.98;92867.91;4945050;28;20047;-77
2021/06/15 18:37:59;;;;;;;23.73;13.77;;;;;;;22.24;58.78;92867.75;4933658;28;20050;-77
2021/06/15 18:40:26;;;;;;;26.73;13.40;;;;;;;22.20;59.21;92868.75;4967971;28;20483;-76
2021/06/15 18:42:52;;;;;;;25.08;13.45;;;;;;;22.14;59.63;92876.28;4948951;28;20055;-78
2021/06/15 18:45:18;;;;;;;23.10;13.57;;;;;;;22.05;59.72;92865.03;4973663;28;20039;-78
2021/06/15 18:47:44;;;;;;;30.33;14.75;;;;;;;21.88;60.18;92868.84;4982173;28;20058;-76
2021/06/15 18:50:12;;;;;;;21.20;13.80;;;;;;;21.86;60.50;92879.09;4957953;28;20043;-76
2021/06/15 18:52:38;;;;;;;30.17;14.70;;;;;;;21.77;60.90;92871.28;5035319;28;20093;-77
2021/06/15 18:55:11;;;;;;;26.92;13.88;;;;;;;21.64;61.22;92869.84;4953854;28;20039;-77
2021/06/15 18:57:37;;;;;;;25.73;14.55;;;;;;;21.55;61.45;92875.34;4937580;28;20532;-77
2021/06/15 19:00:08;;;;;;;23.88;14.40;;;;;;;21.48;61.90;92877.06;4951888;28;20114;-77
2021/06/15 19:02:33;;;;;;;23.52;13.95;;;;;;;21.36;62.21;92876.00;4959539;28;20410;-77
2021/06/15 19:04:59;;;;;;;24.42;14.68;;;;;;;21.29;62.69;92881.16;4971037;28;20058;-77
2021/06/15 19:07:25;;;;;;;25.85;14.73;;;;;;;21.18;62.93;92874.78;4965845;28;20063;-77
2021/06/15 19:09:50;;;;;;;24.00;13.75;;;;;;;21.13;63.15;92877.72;4963547;28;20047;-77
2021/06/15 19:12:16;;;;;;;28.88;15.02;;;;;;;21.07;63.23;92879.09;4964230;28;20567;-77
2021/06/15 19:14:41;;;;;;;26.73;14.25;;;;;;;20.97;63.58;92881.13;4963007;28;20050;-77
2021/06/15 19:17:07;;;;;;;27.55;15.30;;;;;;;20.90;64.04;92877.53;4964831;28;20312;-77
2021/06/15 19:19:34;;;;;;;31.30;14.55;;;;;;;20.83;64.38;92879.97;4971562;28;20473;-76
2021/06/15 19:22:00;;;;;;;21.50;13.55;;;;;;;20.72;64.43;92882.38;4965776;28;20122;-77
2021/06/15 19:24:27;;;;;;;27.65;14.68;;;;;;;20.65;64.60;92887.47;4929985;28;20139;-77
2021/06/15 19:26:57;;;;;;;25.95;14.52;;;;;;;20.54;64.61;92885.28;4947442;28;20050;-77
2021/06/15 19:29:22;;;;;;;24.02;14.50;;;;;;;20.47;64.65;92873.69;4960356;28;20044;-78
2021/06/15 19:31:48;;;;;;;29.42;15.23;;;;;;;20.39;64.96;92883.34;4963810;28;20531;-77
2021/06/15 19:34:14;;;;;;;27.67;15.48;;;;;;;20.33;64.81;92882.81;4958473;28;20112;-77
2021/06/15 19:36:40;;;;;;;26.63;14.80;;;;;;;20.32;65.06;92886.56;4950203;28;20788;-77
2021/06/15 19:39:06;;;;;;;26.83;14.27;;;;;;;20.30;65.15;92885.38;4966926;28;20142;-77
2021/06/15 19:41:31;;;;;;;24.67;14.80;;;;;;;20.24;65.14;92886.69;4963040;28;20054;-76
2021/06/15 19:43:57;;;;;;;33.75;14.30;;;;;;;20.18;65.38;92888.84;4935941;28;20047;-77
2021/06/15 19:46:23;;;;;;;24.58;14.80;;;;;;;20.15;65.41;92892.16;4945089;28;20062;-77
2021/06/15 19:48:48;;;;;;;24.27;14.27;;;;;;;20.10;65.86;92889.72;5040451;28;20049;-77
2021/06/15 19:51:17;;;;;;;34.75;15.10;;;;;;;20.07;66.21;92887.75;4968175;28;20111;-76
2021/06/15 19:53:47;;;;;;;29.13;14.50;;;;;;;20.03;66.00;92898.25;4969524;28;20447;-77
2021/06/15 19:56:19;;;;;;;26.85;15.05;;;;;;;19.99;66.01;92896.59;4972426;28;20047;-78
2021/06/15 19:58:50;;;;;;;;;;;;;;;19.95;66.29;92905.25;4943658;29;20090;-77
2021/06/15 20:01:17;;;;;;;28.48;15.43;;;;;;;19.88;66.69;92906.91;4943322;28;19975;-76
2021/06/15 20:03:43;;;;;;;27.80;15.02;;;;;;;19.78;66.90;92900.19;4952284;28;20046;-76
2021/06/15 20:06:14;;;;;;;32.78;15.95;;;;;;;19.73;66.77;92911.78;4960727;28;20099;-78
2021/06/15 20:08:41;;;;;;;25.65;15.90;;;;;;;19.71;66.74;92915.91;4938500;28;20049;-78
2021/06/15 20:11:09;;;;;;;28.55;16.00;;;;;;;19.67;66.78;92914.97;4957265;28;20043;-79
2021/06/15 20:13:39;;;;;;;28.42;15.55;;;;;;;19.59;66.75;92900.72;4965350;28;20635;-77
2021/06/15 20:16:07;;;;;;;26.77;15.98;;;;;;;19.59;66.95;92902.56;5044910;28;20192;-78
2021/06/15 20:18:35;;;;;;;26.88;15.82;;;;;;;19.58;67.12;92906.34;4971636;28;20044;-78
2021/06/15 20:21:01;;;;;;;25.60;15.18;;;;;;;19.56;67.13;92914.63;4967786;28;20085;-78
2021/06/15 20:23:28;;;;;;;26.42;15.77;;;;;;;19.50;67.18;92910.66;4990911;28;20055;-77
2021/06/15 20:25:53;;;;;;;27.10;15.35;;;;;;;19.52;67.10;92916.41;4968465;28;20035;-77
2021/06/15 20:28:19;;;;;;;27.80;15.93;;;;;;;19.50;67.12;92914.09;4954741;28;20093;-78
2021/06/15 20:30:44;;;;;;;30.40;16.05;;;;;;;19.49;67.16;92914.41;4964447;28;20096;-77
2021/06/15 20:33:11;;;;;;;26.70;16.52;;;;;;;19.46;67.39;92915.09;4979244;28;20075;-77
2021/06/15 20:35:37;;;;;;;31.77;16.58;;;;;;;19.43;66.90;92913.88;4953748;28;20047;-78
2021/06/15 20:38:12;;;;;;;27.63;16.15;;;;;;;19.41;66.65;92915.28;4936286;28;20081;-78
2021/06/15 20:40:38;;;;;;;29.65;16.35;;;;;;;19.39;66.65;92914.84;4956485;28;20069;-78
2021/06/15 20:43:05;;;;;;;27.92;16.10;;;;;;;19.37;67.06;92911.75;5037551;28;20047;-78
2021/06/15 20:45:31;;;;;;;34.22;16.40;;;;;;;19.30;67.40;92907.75;5042381;28;20087;-76
2021/06/15 20:47:56;;;;;;;31.20;16.08;;;;;;;19.28;67.65;92914.50;4973994;28;20058;-77
2021/06/15 20:50:22;;;;;;;28.83;16.00;;;;;;;19.25;67.60;92907.97;4972342;28;20031;-78
2021/06/15 20:52:49;;;;;;;27.60;16.15;;;;;;;19.24;67.55;92917.03;4959709;28;20054;-77
2021/06/15 20:55:16;;;;;;;28.15;16.67;;;;;;;19.19;67.52;92909.28;4958032;28;20401;-77
2021/06/15 20:57:42;;;;;;;33.97;17.70;;;;;;;19.19;67.42;92908.53;4950360;28;20066;-78
2021/06/15 21:03:29;;;;;;;;;;;;;;;;;;;;;
2021/06/15 21:06:21;;;;;;;27.60;17.27;;;;;;;19.16;67.50;92917.88;4943719;28;20393;-92
2021/06/15 21:09:43;;;;;;;;;;;;;;;;;;;;;
2021/06/15 21:12:44;;;;;;;;;;;;;;;;;;;;;